Time;durP1;ratioP1;P1;durP2;ratioP2;P2;SDS_P1;SDS_P2;PMS_P1;PMS_P2;Temp;Humidity;BMP_temperature;BMP_pressure;BME280_temperature;BME280_humidity;BME280_pressure;Samples;Min_cycle;Max_cycle;Signal;HPM_P1;HPM_P2
2022/02/17 00:01:33;;;;;;;17.15;11.88;;;9.70;78.10;;;;;;4996131;28;20380;-73
2022/02/17 00:03:58;;;;;;;19.67;12.02;;;9.60;78.30;;;;;;4996142;28;20026;-72
2022/02/17 00:06:24;;;;;;;22.05;13.02;;;9.60;79.10;;;;;;4996146;28;20430;-72
2022/02/17 00:08:49;;;;;;;21.15;12.05;;;9.50;79.00;;;;;;4996120;28;20071;-72
2022/02/17 00:11:15;;;;;;;19.23;12.85;;;9.50;79.00;;;;;;4995985;28;20022;-72
2022/02/17 00:13:41;;;;;;;18.50;12.05;;;9.50;78.90;;;;;;4996006;28;20040;-73
2022/02/17 00:16:07;;;;;;;18.52;12.13;;;9.50;79.40;;;;;;4995732;28;20026;-73
2022/02/17 00:18:33;;;;;;;20.92;13.02;;;9.50;79.10;;;;;;4995482;28;20089;-74
2022/02/17 00:21:00;;;;;;;21.02;13.00;;;9.50;79.40;;;;;;4995746;28;20110;-73
2022/02/17 00:23:27;;;;;;;17.75;12.73;;;9.50;79.10;;;;;;4995929;28;20480;-73
2022/02/17 00:25:53;;;;;;;22.83;12.88;;;9.50;79.00;;;;;;4996082;28;20023;-73
2022/02/17 00:28:19;;;;;;;17.90;12.35;;;9.40;79.00;;;;;;4996591;28;20058;-74
2022/02/17 00:30:45;;;;;;;22.42;13.30;;;9.40;79.60;;;;;;5009825;28;20074;-75
2022/02/17 00:33:11;;;;;;;19.63;14.48;;;9.30;80.20;;;;;;5017954;28;20099;-73
2022/02/17 00:35:37;;;;;;;20.35;13.88;;;9.30;79.90;;;;;;5013446;28;20030;-73
2022/02/17 00:38:02;;;;;;;22.58;14.15;;;9.30;80.10;;;;;;4997363;28;20101;-72
2022/02/17 00:40:29;;;;;;;21.30;14.00;;;9.30;80.30;;;;;;4997576;28;20035;-73
2022/02/17 00:42:55;;;;;;;19.20;13.50;;;9.30;80.30;;;;;;4997393;28;20049;-75
2022/02/17 00:45:20;;;;;;;19.38;13.40;;;9.30;80.50;;;;;;4996098;28;20050;-72
2022/02/17 00:47:46;;;;;;;20.17;14.38;;;9.30;80.30;;;;;;4979337;28;20023;-74
2022/02/17 00:50:12;;;;;;;17.85;12.60;;;9.30;80.50;;;;;;4995918;28;20479;-74
2022/02/17 00:52:38;;;;;;;20.55;13.20;;;9.30;80.50;;;;;;4977684;28;20106;-73
2022/02/17 00:55:06;;;;;;;19.00;12.50;;;9.30;80.50;;;;;;4995179;28;20031;-74
2022/02/17 00:57:34;;;;;;;20.10;11.80;;;9.30;80.00;;;;;;4995066;28;20084;-73
2022/02/17 01:00:00;;;;;;;19.55;11.60;;;9.30;80.50;;;;;;4995124;28;20044;-73
2022/02/17 01:02:26;;;;;;;17.42;11.85;;;9.30;80.20;;;;;;4995396;28;20026;-74
2022/02/17 01:04:52;;;;;;;19.50;12.50;;;9.20;80.10;;;;;;4995358;28;20027;-72
2022/02/17 01:07:18;;;;;;;17.67;12.02;;;9.20;80.50;;;;;;4995291;28;20026;-73
2022/02/17 01:09:43;;;;;;;18.67;12.15;;;9.10;80.50;;;;;;4995069;28;20049;-73
2022/02/17 01:12:10;;;;;;;18.63;12.45;;;9.00;80.40;;;;;;4994961;28;20018;-73
2022/02/17 01:14:35;;;;;;;17.52;12.15;;;9.00;80.50;;;;;;4994851;28;20031;-72
2022/02/17 01:17:01;;;;;;;20.35;12.25;;;9.00;80.70;;;;;;4995067;28;20046;-72
2022/02/17 01:19:27;;;;;;;17.60;11.20;;;9.00;80.60;;;;;;4994752;28;20078;-73
2022/02/17 01:21:53;;;;;;;24.90;12.98;;;9.00;81.40;;;;;;4994900;28;20105;-72
2022/02/17 01:24:19;;;;;;;17.23;12.45;;;9.00;80.90;;;;;;4994639;28;20026;-72
2022/02/17 01:26:46;;;;;;;19.98;13.43;;;8.90;80.70;;;;;;4994729;28;20389;-73
2022/02/17 01:29:11;;;;;;;16.30;11.27;;;8.90;81.10;;;;;;4993899;28;20089;-73
2022/02/17 01:31:37;;;;;;;18.30;12.00;;;8.80;81.00;;;;;;4993271;28;20089;-72
2022/02/17 01:34:03;;;;;;;18.55;12.23;;;8.70;81.70;;;;;;4994552;28;20033;-72
2022/02/17 01:36:29;;;;;;;21.80;12.25;;;8.70;81.90;;;;;;4994445;28;20027;-72
2022/02/17 01:38:55;;;;;;;18.95;10.85;;;8.70;82.20;;;;;;4994267;28;20037;-73
2022/02/17 01:41:24;;;;;;;19.73;11.70;;;8.70;82.30;;;;;;4994091;28;20507;-73
2022/02/17 01:43:50;;;;;;;17.80;10.73;;;8.70;82.20;;;;;;4994346;28;20037;-74
2022/02/17 01:46:16;;;;;;;28.77;12.27;;;8.70;82.30;;;;;;4976721;28;20061;-72
2022/02/17 01:48:42;;;;;;;15.82;11.45;;;8.80;82.20;;;;;;4994087;28;20032;-72
2022/02/17 01:51:08;;;;;;;17.80;11.45;;;8.80;82.40;;;;;;4992969;28;20027;-72
2022/02/17 01:53:34;;;;;;;17.17;11.20;;;8.90;82.40;;;;;;4994360;28;20058;-72
2022/02/17 01:56:01;;;;;;;21.83;12.07;;;8.90;82.20;;;;;;4976497;28;20439;-72
2022/02/17 01:58:31;;;;;;;16.95;10.95;;;8.90;82.30;;;;;;4994021;28;20042;-72
2022/02/17 02:00:56;;;;;;;14.88;10.20;;;8.90;81.10;;;;;;4994033;28;20027;-73
2022/02/17 02:03:23;;;;;;;16.05;10.77;;;8.90;81.80;;;;;;4994061;28;20037;-73
2022/02/17 02:05:49;;;;;;;16.23;10.80;;;8.90;82.00;;;;;;4994317;28;20022;-72
2022/02/17 02:08:15;;;;;;;18.13;10.50;;;8.80;81.90;;;;;;4993984;28;20444;-72
2022/02/17 02:10:41;;;;;;;16.52;10.30;;;8.90;82.10;;;;;;4993777;28;20042;-73
2022/02/17 02:13:07;;;;;;;16.33;10.57;;;8.90;82.30;;;;;;4993910;28;20034;-72
2022/02/17 02:15:46;;;;;;;16.05;10.75;;;8.90;82.30;;;;;;4993863;28;20502;-74
2022/02/17 02:18:12;;;;;;;15.35;10.85;;;8.90;82.40;;;;;;4993815;28;20040;-73
2022/02/17 02:20:49;;;;;;;17.40;11.93;;;8.90;82.30;;;;;;4993723;28;20491;-72
2022/02/17 02:23:15;;;;;;;17.08;11.35;;;8.80;81.50;;;;;;4993816;28;20026;-72
2022/02/17 02:25:47;;;;;;;15.90;10.50;;;8.90;82.70;;;;;;4993851;28;20124;-71
2022/02/17 02:28:24;;;;;;;17.92;11.07;;;8.80;82.70;;;;;;4975965;28;20057;-72
2022/02/17 02:30:51;;;;;;;21.77;10.82;;;8.70;81.80;;;;;;4993391;28;20575;-73
2022/02/17 02:33:17;;;;;;;17.10;11.38;;;8.70;83.00;;;;;;4993355;28;20109;-72
2022/02/17 02:35:44;;;;;;;15.35;10.57;;;8.70;83.30;;;;;;4993440;28;20459;-72
2022/02/17 02:38:11;;;;;;;16.88;11.18;;;8.70;83.20;;;;;;4993180;28;20038;-72
2022/02/17 02:40:36;;;;;;;14.50;11.10;;;8.60;83.50;;;;;;4993585;28;20022;-71
2022/02/17 02:43:03;;;;;;;20.45;10.93;;;8.60;83.20;;;;;;4993282;28;20053;-72
2022/02/17 02:45:29;;;;;;;16.38;10.75;;;8.60;83.60;;;;;;4993471;28;20034;-73
2022/02/17 02:47:55;;;;;;;14.05;10.35;;;8.50;83.40;;;;;;4993361;28;20037;-73
2022/02/17 02:50:21;;;;;;;15.88;9.85;;;8.40;83.30;;;;;;4975877;28;20101;-72
2022/02/17 02:52:47;;;;;;;15.07;10.73;;;8.50;83.80;;;;;;4993516;28;20030;-73
2022/02/17 02:55:12;;;;;;;16.70;9.73;;;8.50;83.70;;;;;;4993391;28;20097;-72
2022/02/17 02:57:38;;;;;;;14.85;10.68;;;8.50;83.70;;;;;;4993462;28;20057;-73
2022/02/17 03:00:05;;;;;;;15.68;9.93;;;8.50;84.00;;;;;;4993178;28;20042;-73
2022/02/17 03:02:30;;;;;;;14.45;10.60;;;8.50;84.00;;;;;;4993226;28;20027;-72
2022/02/17 03:04:56;;;;;;;16.27;10.45;;;8.50;83.70;;;;;;4993257;28;20089;-72
2022/02/17 03:07:22;;;;;;;14.73;10.82;;;8.50;83.60;;;;;;4993233;28;20054;-73
2022/02/17 03:09:47;;;;;;;15.88;11.23;;;8.40;83.80;;;;;;4993213;28;20105;-72
2022/02/17 03:12:13;;;;;;;16.77;10.60;;;8.30;84.10;;;;;;4993180;28;20037;-71
2022/02/17 03:14:40;;;;;;;17.67;10.80;;;8.20;84.60;;;;;;4993288;28;20062;-72
2022/02/17 03:17:06;;;;;;;14.88;10.35;;;8.20;84.40;;;;;;4993061;28;20073;-72
2022/02/17 03:19:32;;;;;;;20.88;10.63;;;8.10;84.50;;;;;;4992970;28;20081;-72
2022/02/17 03:21:58;;;;;;;14.70;10.75;;;7.90;84.10;;;;;;4993118;28;20030;-74
2022/02/17 03:24:24;;;;;;;17.23;10.30;;;7.90;85.00;;;;;;4992856;28;20030;-72
2022/02/17 03:26:51;;;;;;;13.00;9.20;;;7.80;85.20;;;;;;4993057;28;20109;-71
2022/02/17 03:29:16;;;;;;;15.95;9.90;;;7.70;85.30;;;;;;4975562;28;20113;-73
2022/02/17 03:31:42;;;;;;;14.10;9.88;;;7.70;85.70;;;;;;4975562;28;20030;-73
2022/02/17 03:34:07;;;;;;;13.77;9.27;;;7.60;85.80;;;;;;4992799;28;20404;-72
2022/02/17 03:36:33;;;;;;;16.13;8.82;;;7.70;86.20;;;;;;4992820;28;20042;-72
2022/02/17 03:39:00;;;;;;;14.05;8.15;;;7.80;86.20;;;;;;4992557;28;20043;-72
2022/02/17 03:41:25;;;;;;;12.43;8.35;;;7.80;86.00;;;;;;4992842;28;20050;-73
2022/02/17 03:43:51;;;;;;;18.13;9.55;;;7.80;86.10;;;;;;4992883;28;20026;-73
2022/02/17 03:46:17;;;;;;;12.27;9.10;;;7.70;86.10;;;;;;4992929;28;20480;-73
2022/02/17 03:48:42;;;;;;;12.73;8.68;;;7.80;86.60;;;;;;4992754;28;20033;-73
2022/02/17 03:51:08;;;;;;;11.57;8.70;;;7.80;86.60;;;;;;4992876;28;20484;-72
2022/02/17 03:53:34;;;;;;;12.50;8.90;;;7.80;86.70;;;;;;4995378;28;20081;-73
2022/02/17 03:55:59;;;;;;;16.00;9.15;;;7.70;86.70;;;;;;4996156;28;20044;-72
2022/02/17 04:01:09;;;;;;;10.77;8.05;;;7.80;86.20;;;;;;4996250;28;20077;-72
2022/02/17 04:03:35;;;;;;;13.10;9.45;;;7.70;87.00;;;;;;4979216;28;20061;-73
2022/02/17 04:06:01;;;;;;;15.02;9.02;;;7.70;86.50;;;;;;4978949;28;20491;-72
2022/02/17 04:08:27;;;;;;;13.15;9.05;;;7.70;87.10;;;;;;4996559;28;20033;-73
2022/02/17 04:10:52;;;;;;;15.15;8.38;;;7.70;86.90;;;;;;4996225;28;20032;-72
2022/02/17 04:13:18;;;;;;;11.95;8.93;;;7.80;87.00;;;;;;4996098;28;20400;-72
2022/02/17 04:15:44;;;;;;;14.73;8.68;;;7.90;86.50;;;;;;4996011;28;20109;-74
2022/02/17 04:18:09;;;;;;;16.00;9.02;;;7.90;86.60;;;;;;4978910;28;20066;-72
2022/02/17 04:20:35;;;;;;;16.08;8.93;;;7.90;86.20;;;;;;4980663;28;20053;-74
2022/02/17 04:23:00;;;;;;;15.40;9.45;;;8.00;86.50;;;;;;5004857;28;20022;-71
2022/02/17 04:25:26;;;;;;;14.52;9.23;;;8.00;86.30;;;;;;5002201;28;20019;-72
2022/02/17 04:27:52;;;;;;;14.30;9.20;;;8.00;86.30;;;;;;5019026;28;20014;-72
2022/02/17 04:30:17;;;;;;;15.70;9.25;;;8.00;86.40;;;;;;5001789;28;20380;-73
2022/02/17 04:32:43;;;;;;;13.05;9.43;;;8.00;86.30;;;;;;4997975;28;20080;-72
2022/02/17 04:35:09;;;;;;;12.15;8.98;;;8.00;86.90;;;;;;4996502;28;20034;-73
2022/02/17 04:37:34;;;;;;;14.60;8.95;;;8.00;86.90;;;;;;4995864;28;20026;-73
2022/02/17 04:40:00;;;;;;;11.80;8.43;;;8.00;87.00;;;;;;4995952;28;20034;-73
2022/02/17 04:42:27;;;;;;;14.43;8.93;;;8.00;86.80;;;;;;4978980;28;20050;-74
2022/02/17 04:44:53;;;;;;;14.93;9.05;;;8.00;86.80;;;;;;4995607;28;20026;-74
2022/02/17 04:47:19;;;;;;;12.27;8.13;;;8.00;87.00;;;;;;4995938;28;20531;-75
2022/02/17 04:49:45;;;;;;;11.57;8.50;;;8.00;86.70;;;;;;4977807;28;20045;-74
2022/02/17 04:52:11;;;;;;;15.30;9.27;;;7.90;86.60;;;;;;4977967;28;20491;-73
2022/02/17 04:54:37;;;;;;;14.38;8.70;;;7.90;87.00;;;;;;4995620;28;20049;-74
2022/02/17 04:57:04;;;;;;;14.68;9.15;;;7.90;86.90;;;;;;4995508;28;20027;-73
2022/02/17 04:59:31;;;;;;;13.13;9.20;;;7.80;86.90;;;;;;4995132;28;20054;-73
2022/02/17 05:01:57;;;;;;;14.88;9.45;;;7.80;87.30;;;;;;4977937;28;20053;-74
2022/02/17 05:04:23;;;;;;;15.10;10.93;;;7.80;87.10;;;;;;4994362;28;20033;-74
2022/02/17 05:06:48;;;;;;;18.30;10.77;;;7.80;87.60;;;;;;4995500;28;20113;-75
2022/02/17 05:09:14;;;;;;;17.50;10.60;;;7.80;88.10;;;;;;4995053;28;20289;-76
2022/02/17 05:11:40;;;;;;;17.25;11.32;;;7.70;87.40;;;;;;4977748;28;20050;-75
2022/02/17 05:14:06;;;;;;;17.20;10.57;;;7.70;87.60;;;;;;4977556;28;20495;-74
2022/02/17 05:16:32;;;;;;;17.40;11.77;;;7.70;87.40;;;;;;4995005;28;20030;-75
2022/02/17 05:18:58;;;;;;;19.83;11.77;;;7.70;87.90;;;;;;4994800;28;20045;-74
2022/02/17 05:21:24;;;;;;;15.00;11.05;;;7.70;88.20;;;;;;4994984;28;20033;-75
2022/02/17 05:23:50;;;;;;;16.77;11.45;;;7.70;88.10;;;;;;4994910;28;20026;-75
2022/02/17 05:26:16;;;;;;;16.48;10.23;;;7.60;87.60;;;;;;4994912;28;20026;-75
2022/02/17 05:28:41;;;;;;;19.15;11.40;;;7.70;88.00;;;;;;4994510;28;20018;-74
2022/02/17 05:31:07;;;;;;;19.75;11.88;;;7.70;87.80;;;;;;4994693;28;20494;-73
2022/02/17 05:33:33;;;;;;;17.45;10.38;;;7.60;87.80;;;;;;4994573;28;20058;-73
2022/02/17 05:35:59;;;;;;;17.02;10.63;;;7.70;87.90;;;;;;4994657;28;20081;-72
2022/02/17 05:38:24;;;;;;;15.00;10.15;;;7.70;87.40;;;;;;4994458;28;20026;-74
2022/02/17 05:40:50;;;;;;;19.50;11.60;;;7.60;87.60;;;;;;4976913;28;20129;-74
2022/02/17 05:43:17;;;;;;;16.92;10.93;;;7.60;87.80;;;;;;4976896;28;20030;-74
2022/02/17 05:45:42;;;;;;;17.13;9.23;;;7.60;88.20;;;;;;4994349;28;20480;-75
2022/02/17 05:48:08;;;;;;;14.05;9.32;;;7.60;87.80;;;;;;4993989;28;20109;-76
2022/02/17 05:50:34;;;;;;;12.25;8.85;;;7.50;87.60;;;;;;4994391;28;20062;-76
2022/02/17 05:53:00;;;;;;;19.52;10.00;;;7.40;87.70;;;;;;4976867;28;20034;-75
2022/02/17 05:55:27;;;;;;;18.05;10.50;;;7.30;88.80;;;;;;4994500;28;20438;-73
2022/02/17 05:57:53;;;;;;;23.15;12.45;;;7.30;88.40;;;;;;4994107;28;20483;-73
2022/02/17 06:00:19;;;;;;;14.27;9.48;;;7.30;88.80;;;;;;4976494;28;20033;-75
2022/02/17 06:02:45;;;;;;;14.73;9.77;;;7.30;88.50;;;;;;4976518;28;20068;-74
2022/02/17 06:05:11;;;;;;;15.88;10.82;;;7.30;88.40;;;;;;4976611;28;20491;-74
2022/02/17 06:07:38;;;;;;;19.00;9.57;;;7.30;89.20;;;;;;4993958;28;20018;-74
2022/02/17 06:10:08;;;;;;;19.83;8.55;;;7.30;89.00;;;;;;4994218;28;20054;-76
2022/02/17 06:12:46;;;;;;;14.27;8.73;;;7.40;88.70;;;;;;4994157;28;20487;-75
2022/02/17 06:15:14;;;;;;;16.17;8.70;;;7.40;87.50;;;;;;4993743;28;20125;-76
2022/02/17 06:17:40;;;;;;;14.05;9.00;;;7.30;89.00;;;;;;4998202;28;20026;-75
2022/02/17 06:20:07;;;;;;;14.23;7.72;;;7.40;88.90;;;;;;4977409;28;20038;-74
2022/02/17 06:22:34;;;;;;;18.63;8.50;;;7.40;88.50;;;;;;4994100;28;20060;-72
2022/02/17 06:24:59;;;;;;;13.85;8.40;;;7.50;88.70;;;;;;4976440;28;20027;-77
2022/02/17 06:27:25;;;;;;;14.45;8.63;;;7.60;88.20;;;;;;4993810;28;20431;-71
2022/02/17 06:29:51;;;;;;;13.00;8.10;;;7.70;88.30;;;;;;4993774;28;20026;-74
2022/02/17 06:32:16;;;;;;;19.67;9.13;;;7.70;87.60;;;;;;4976430;28;20137;-73
2022/02/17 06:34:42;;;;;;;14.32;7.63;;;7.70;87.30;;;;;;4993754;28;20026;-76
2022/02/17 06:37:08;;;;;;;14.23;8.43;;;7.70;87.20;;;;;;4994187;28;20023;-74
2022/02/17 06:39:33;;;;;;;13.02;8.48;;;7.50;87.10;;;;;;4993416;28;20038;-72
2022/02/17 06:41:59;;;;;;;12.15;8.13;;;7.60;87.90;;;;;;4993245;28;20053;-74
2022/02/17 06:44:25;;;;;;;16.60;7.70;;;7.60;87.80;;;;;;4993666;28;20042;-75
2022/02/17 06:46:51;;;;;;;16.13;8.65;;;7.60;87.80;;;;;;4993331;28;20526;-75
2022/02/17 06:49:18;;;;;;;17.42;9.23;;;7.70;87.80;;;;;;4993251;28;20030;-72
2022/02/17 06:51:43;;;;;;;14.77;9.25;;;7.90;88.20;;;;;;4993522;28;20022;-74
2022/02/17 06:54:09;;;;;;;13.80;8.45;;;8.00;87.30;;;;;;5009788;28;20034;-76
2022/02/17 06:56:37;;;;;;;16.00;8.73;;;8.10;87.30;;;;;;5013197;28;20044;-76
2022/02/17 06:59:04;;;;;;;17.08;11.73;;;8.10;85.90;;;;;;5012898;28;20081;-75
2022/02/17 07:01:32;;;;;;;15.02;8.23;;;8.20;87.00;;;;;;5012975;28;20034;-75
2022/02/17 07:03:58;;;;;;;16.75;8.40;;;8.30;85.50;;;;;;5012985;28;20032;-73
2022/02/17 07:06:24;;;;;;;15.82;8.07;;;8.40;85.80;;;;;;4995151;28;20125;-76
2022/02/17 07:08:51;;;;;;;12.05;7.00;;;8.50;85.60;;;;;;5013098;28;20026;-75
2022/02/17 07:11:17;;;;;;;15.70;7.68;;;8.60;85.50;;;;;;5013720;28;20033;-71
2022/02/17 07:13:43;;;;;;;16.90;6.78;;;8.70;85.10;;;;;;5008140;28;20494;-73
2022/02/17 07:16:09;;;;;;;17.67;7.07;;;8.70;83.60;;;;;;4993286;28;20380;-74
2022/02/17 07:18:37;;;;;;;16.55;6.70;;;8.90;84.20;;;;;;4993007;28;20027;-73
2022/02/17 07:21:05;;;;;;;12.02;6.15;;;9.00;83.00;;;;;;4993112;28;20035;-75
2022/02/17 07:23:31;;;;;;;16.67;6.60;;;9.10;82.70;;;;;;4993348;28;20022;-75
2022/02/17 07:25:56;;;;;;;16.98;6.65;;;9.20;82.60;;;;;;4993203;28;20094;-73
2022/02/17 07:28:23;;;;;;;13.43;6.30;;;9.20;82.00;;;;;;4995485;28;20065;-73
2022/02/17 07:30:52;;;;;;;15.48;6.57;;;9.30;81.70;;;;;;4996728;28;20060;-73
2022/02/17 07:33:17;;;;;;;15.10;6.97;;;9.40;81.50;;;;;;4996321;28;20121;-71
2022/02/17 07:35:44;;;;;;;17.52;6.25;;;9.40;80.80;;;;;;4996232;28;20519;-74
2022/02/17 07:38:11;;;;;;;15.75;7.45;;;9.30;78.50;;;;;;4996439;28;20117;-75
2022/02/17 07:40:40;;;;;;;24.67;6.20;;;9.30;79.50;;;;;;4996438;28;20042;-73
2022/02/17 07:43:08;;;;;;;12.57;6.30;;;9.20;79.10;;;;;;4995951;28;20047;-76
2022/02/17 07:45:34;;;;;;;12.68;5.95;;;9.10;78.10;;;;;;4996553;28;20101;-73
2022/02/17 07:48:00;;;;;;;19.65;7.97;;;9.10;78.70;;;;;;4996296;28;20033;-73
2022/02/17 07:50:27;;;;;;;20.42;7.28;;;9.10;79.10;;;;;;4996355;28;20023;-72
2022/02/17 07:52:54;;;;;;;12.50;6.70;;;9.20;79.50;;;;;;4996348;28;20030;-75
2022/02/17 07:55:21;;;;;;;13.98;6.97;;;9.50;79.50;;;;;;4994849;28;20041;-76
2022/02/17 07:57:48;;;;;;;14.32;7.15;;;9.60;79.00;;;;;;4996193;28;20033;-75
2022/02/17 08:00:14;;;;;;;16.13;6.43;;;9.80;78.70;;;;;;4995584;28;20093;-75
2022/02/17 08:02:41;;;;;;;18.83;6.40;;;9.90;77.40;;;;;;4996139;28;20026;-74
2022/02/17 08:05:07;;;;;;;19.17;6.50;;;9.90;76.30;;;;;;4994866;28;20026;-74
2022/02/17 08:07:34;;;;;;;11.45;5.93;;;10.00;74.50;;;;;;4996771;28;20018;-74
2022/02/17 08:10:00;;;;;;;16.52;6.30;;;10.00;74.40;;;;;;4996247;28;20037;-74
2022/02/17 08:12:26;;;;;;;20.13;7.25;;;10.00;74.30;;;;;;4996037;28;20444;-75
2022/02/17 08:14:51;;;;;;;19.83;7.32;;;10.10;75.20;;;;;;4995987;28;20054;-74
2022/02/17 08:17:17;;;;;;;27.00;13.60;;;10.10;74.20;;;;;;4996564;28;20030;-75
2022/02/17 08:19:43;;;;;;;30.90;17.92;;;10.20;73.50;;;;;;4998720;28;20487;-75
2022/02/17 08:22:08;;;;;;;22.13;9.73;;;10.20;73.70;;;;;;5015584;28;20026;-74
2022/02/17 08:24:34;;;;;;;25.10;7.03;;;10.20;73.60;;;;;;5015080;28;20471;-73
2022/02/17 08:27:00;;;;;;;18.17;7.55;;;10.30;73.60;;;;;;4998385;28;20387;-75
2022/02/17 08:29:26;;;;;;;13.75;6.65;;;10.30;73.40;;;;;;4996427;28;20019;-76
2022/02/17 08:31:52;;;;;;;20.42;7.57;;;10.40;73.10;;;;;;4996477;28;20049;-77
2022/02/17 08:34:18;;;;;;;14.30;6.88;;;10.40;73.00;;;;;;4996104;28;20030;-75
2022/02/17 08:36:44;;;;;;;15.88;7.57;;;10.40;73.10;;;;;;4996023;28;20050;-74
2022/02/17 08:39:10;;;;;;;15.60;7.07;;;10.50;73.00;;;;;;4995409;28;20073;-75
2022/02/17 08:41:36;;;;;;;18.00;8.05;;;10.60;72.70;;;;;;4995630;28;20038;-73
2022/02/17 08:44:06;;;;;;;15.85;7.45;;;10.60;72.80;;;;;;4995192;28;20030;-73
2022/02/17 08:46:32;;;;;;;16.27;7.78;;;10.70;72.80;;;;;;4995158;28;20042;-75
2022/02/17 08:48:59;;;;;;;27.63;7.55;;;10.70;72.60;;;;;;4995220;28;20090;-75
2022/02/17 08:51:29;;;;;;;14.57;6.75;;;10.80;72.20;;;;;;4977771;28;20035;-75
2022/02/17 08:53:55;;;;;;;15.90;7.72;;;10.80;71.90;;;;;;4994990;28;20061;-75
2022/02/17 08:56:20;;;;;;;22.77;8.10;;;10.80;71.90;;;;;;4994903;28;20412;-77
2022/02/17 08:58:46;;;;;;;15.65;8.40;;;10.80;71.70;;;;;;4994887;28;20034;-71
2022/02/17 09:01:13;;;;;;;17.15;8.18;;;10.90;71.60;;;;;;4994714;28;20500;-73
2022/02/17 09:03:38;;;;;;;16.35;7.55;;;10.90;71.50;;;;;;4994728;28;20058;-74
2022/02/17 09:06:04;;;;;;;13.43;8.15;;;10.90;71.50;;;;;;4994651;28;20069;-74
2022/02/17 09:08:30;;;;;;;18.02;8.13;;;11.00;71.80;;;;;;4994557;28;20373;-73
2022/02/17 09:10:56;;;;;;;20.70;8.05;;;11.00;71.30;;;;;;4995121;28;20432;-72
2022/02/17 09:13:23;;;;;;;16.38;8.60;;;11.00;70.80;;;;;;4994715;28;20502;-75
2022/02/17 09:15:49;;;;;;;19.92;7.32;;;11.10;70.80;;;;;;4993640;28;20026;-72
2022/02/17 09:18:15;;;;;;;15.60;8.25;;;11.10;70.80;;;;;;4994695;28;20034;-72
2022/02/17 09:20:41;;;;;;;15.00;8.30;;;11.20;70.50;;;;;;4994742;28;20117;-73
2022/02/17 09:23:08;;;;;;;19.08;8.40;;;11.20;70.60;;;;;;4994747;28;20408;-75
2022/02/17 09:25:36;;;;;;;15.35;7.55;;;11.40;70.20;;;;;;4994735;28;20022;-72
2022/02/17 09:28:05;;;;;;;13.10;7.30;;;11.40;70.50;;;;;;4994659;28;20029;-74
2022/02/17 09:30:32;;;;;;;17.17;7.97;;;11.50;70.00;;;;;;4994599;28;20027;-77
2022/02/17 09:32:58;;;;;;;17.00;9.20;;;11.50;69.70;;;;;;4994752;28;20112;-74
2022/02/17 09:35:24;;;;;;;15.23;7.40;;;11.60;69.90;;;;;;4994600;28;20050;-76
2022/02/17 09:37:50;;;;;;;15.10;6.55;;;11.70;69.40;;;;;;4977008;28;20069;-74
2022/02/17 09:40:20;;;;;;;16.38;7.57;;;11.70;69.30;;;;;;4994617;28;20074;-77
2022/02/17 09:42:47;;;;;;;15.88;8.07;;;11.70;69.20;;;;;;4994016;28;20054;-76
2022/02/17 09:45:13;;;;;;;15.02;7.80;;;11.80;68.70;;;;;;4994476;28;20026;-70
2022/02/17 09:47:40;;;;;;;18.80;8.25;;;12.00;69.00;;;;;;4994245;28;20065;-72
2022/02/17 09:50:08;;;;;;;13.05;7.85;;;12.10;68.60;;;;;;4993808;28;20333;-73
2022/02/17 09:52:34;;;;;;;13.40;7.50;;;12.20;68.50;;;;;;4994368;28;20037;-74
2022/02/17 09:54:59;;;;;;;18.48;8.32;;;12.30;67.80;;;;;;4994129;28;20034;-72
2022/02/17 09:57:25;;;;;;;17.20;8.75;;;12.40;67.90;;;;;;4993669;28;20113;-71
2022/02/17 09:59:51;;;;;;;14.55;7.90;;;12.50;67.70;;;;;;4993773;28;20433;-73
2022/02/17 10:02:25;;;;;;;14.20;8.10;;;12.60;67.30;;;;;;4993968;28;20057;-73
2022/02/17 10:04:54;;;;;;;;;;;12.70;66.80;;;;;;4994382;28;20100;-72
2022/02/17 10:07:34;;;;;;;12.00;8.18;;;12.80;66.20;;;;;;4993957;28;19906;-74
2022/02/17 10:10:08;;;;;;;16.15;8.88;;;12.90;66.60;;;;;;4993609;28;20033;-73
2022/02/17 10:12:57;;;;;;;16.27;9.45;;;13.10;66.80;;;;;;4992680;28;20026;-72
2022/02/17 10:15:29;;;;;;;21.13;9.18;;;13.20;66.90;;;;;;4993672;28;20034;-70
2022/02/17 10:18:09;;;;;;;16.05;8.77;;;13.30;66.50;;;;;;4993591;28;20380;-74
2022/02/17 10:21:07;;;;;;;12.38;8.85;;;13.40;66.40;;;;;;4993714;28;20034;-74
2022/02/17 10:23:34;;;;;;;14.57;8.93;;;13.40;66.50;;;;;;4993741;28;20058;-75
2022/02/17 10:26:13;;;;;;;17.48;8.65;;;13.50;66.60;;;;;;4993680;28;20022;-72
2022/02/17 10:28:54;;;;;;;16.15;7.82;;;13.70;66.80;;;;;;4993165;28;20100;-72
2022/02/17 10:31:36;;;;;;;23.40;7.65;;;13.80;66.20;;;;;;4993463;28;20030;-74
2022/02/17 10:34:05;;;;;;;14.68;8.20;;;14.00;66.30;;;;;;4993504;28;20026;-74
2022/02/17 10:36:40;;;;;;;13.77;8.13;;;14.10;65.90;;;;;;4993337;28;20022;-72
2022/02/17 10:39:14;;;;;;;16.25;8.23;;;14.20;65.00;;;;;;4993248;28;20117;-74
2022/02/17 10:41:47;;;;;;;13.63;7.80;;;14.30;64.50;;;;;;4993009;28;20121;-72
2022/02/17 10:44:13;;;;;;;8.15;5.43;;;14.40;64.40;;;;;;4975787;28;20045;-73
2022/02/17 10:46:39;;;;;;;20.80;8.63;;;14.50;64.20;;;;;;4993530;28;20410;-73
2022/02/17 10:49:15;;;;;;;11.45;7.43;;;14.60;64.00;;;;;;4993167;28;20085;-73
2022/02/17 10:51:42;;;;;;;16.75;8.20;;;14.70;63.60;;;;;;4993164;28;20018;-74
2022/02/17 10:54:10;;;;;;;10.13;6.80;;;14.70;63.50;;;;;;4993321;28;20091;-74
2022/02/17 10:56:37;;;;;;;13.82;5.90;;;14.80;64.10;;;;;;4993682;28;20029;-76
2022/02/17 11:00:00;;;;;;;11.95;5.30;;;14.90;63.00;;;;;;4993427;28;20109;-74
2022/02/17 11:01:57;;;;;;;12.70;5.60;;;15.00;62.90;;;;;;4993033;28;20038;-73
2022/02/17 11:04:24;;;;;;;11.05;5.40;;;15.10;62.90;;;;;;4995993;28;20105;-73
2022/02/17 11:06:52;;;;;;;12.73;4.40;;;15.10;62.70;;;;;;4996979;28;20026;-74
2022/02/17 11:09:18;;;;;;;8.80;3.70;;;15.20;62.40;;;;;;4997143;28;20034;-73
2022/02/17 11:11:50;;;;;;;6.38;3.33;;;15.30;61.20;;;;;;4997077;28;20105;-77
2022/02/17 11:14:16;;;;;;;5.40;3.05;;;15.40;60.30;;;;;;4997011;28;20018;-73
2022/02/17 11:16:42;;;;;;;6.45;3.13;;;15.50;59.70;;;;;;4997056;28;20073;-71
2022/02/17 11:19:08;;;;;;;8.43;3.78;;;15.60;59.20;;;;;;4997067;28;20336;-72
2022/02/17 11:21:34;;;;;;;10.02;3.65;;;15.70;58.90;;;;;;4996941;28;20018;-73
2022/02/17 11:24:02;;;;;;;8.15;3.22;;;15.80;58.00;;;;;;4996719;28;20034;-74
2022/02/17 11:26:32;;;;;;;8.35;3.10;;;15.90;57.90;;;;;;4996692;28;20025;-71
2022/02/17 11:29:25;;;;;;;8.38;3.20;;;15.90;57.30;;;;;;4996401;28;20136;-71
2022/02/17 11:32:02;;;;;;;4.57;2.50;;;15.90;57.00;;;;;;4996843;28;20058;-74
2022/02/17 11:34:37;;;;;;;7.07;3.65;;;15.90;56.70;;;;;;4996613;28;20041;-75
2022/02/17 11:37:30;;;;;;;5.70;2.55;;;15.90;56.30;;;;;;4996463;28;20100;-72
2022/02/17 11:40:15;;;;;;;5.93;2.92;;;16.00;55.30;;;;;;4996401;28;20438;-71
2022/02/17 11:42:47;;;;;;;7.35;3.88;;;16.10;53.40;;;;;;4996357;28;20120;-71
2022/02/17 11:45:16;;;;;;;7.35;2.70;;;16.10;53.70;;;;;;4996473;28;20446;-71
2022/02/17 11:48:01;;;;;;;7.82;3.63;;;16.10;53.60;;;;;;4996065;28;20027;-73
2022/02/17 11:50:29;;;;;;;11.63;3.90;;;16.20;54.00;;;;;;4996085;28;20041;-71
2022/02/17 11:53:34;;;;;;;5.60;2.80;;;16.20;53.80;;;;;;4996489;28;20049;-73
2022/02/17 11:56:06;;;;;;;8.35;3.00;;;16.20;54.10;;;;;;4997362;28;20101;-70
2022/02/17 11:58:44;;;;;;;10.02;3.20;;;16.30;53.20;;;;;;5003390;28;20034;-71
2022/02/17 12:01:33;;;;;;;5.55;2.60;;;16.60;52.10;;;;;;4999397;28;20497;-72
2022/02/17 12:04:09;;;;;;;4.15;2.10;;;16.80;51.40;;;;;;4996131;28;20360;-68
2022/02/17 12:06:45;;;;;;;7.70;2.17;;;16.90;51.40;;;;;;4995967;28;20668;-73
2022/02/17 12:09:35;;;;;;;6.32;2.20;;;16.90;50.10;;;;;;4995944;28;20018;-76
2022/02/17 12:12:16;;;;;;;5.90;2.50;;;16.90;49.60;;;;;;4996357;28;20045;-74
2022/02/17 12:14:45;;;;;;;7.03;2.40;;;16.90;49.60;;;;;;4995960;28;20098;-72
2022/02/17 12:17:11;;;;;;;8.18;2.22;;;17.00;49.60;;;;;;4995692;28;20034;-76
2022/02/17 12:19:37;;;;;;;5.43;2.30;;;17.00;49.50;;;;;;4995735;28;20050;-73
2022/02/17 12:22:10;;;;;;;5.68;2.58;;;17.10;49.60;;;;;;4995567;28;20019;-74
2022/02/17 12:24:44;;;;;;;4.15;2.03;;;17.20;49.60;;;;;;4996166;28;20495;-72
2022/02/17 12:27:10;;;;;;;5.70;2.30;;;17.20;49.50;;;;;;4995836;28;20113;-76
2022/02/17 12:29:37;;;;;;;5.50;2.45;;;17.20;49.20;;;;;;4995971;28;20030;-74
2022/02/17 12:32:07;;;;;;;9.82;3.05;;;17.20;49.30;;;;;;4995608;28;20027;-73
2022/02/17 12:34:34;;;;;;;10.43;4.13;;;17.30;49.20;;;;;;4995939;28;20034;-76
2022/02/17 12:37:01;;;;;;;9.82;2.80;;;17.40;50.20;;;;;;4995608;28;20023;-76
2022/02/17 12:39:31;;;;;;;10.77;2.60;;;17.40;49.90;;;;;;4995486;28;20027;-74
2022/02/17 12:42:07;;;;;;;8.70;2.55;;;17.50;51.00;;;;;;4995250;28;20050;-72
2022/02/17 12:44:39;;;;;;;8.07;2.50;;;17.60;50.80;;;;;;4996163;28;20472;-77
2022/02/17 12:47:06;;;;;;;6.20;2.00;;;17.60;50.50;;;;;;4996447;28;20046;-82